createdAt,value
2022-10-15T00:00:59.249Z,21.35
2022-10-15T00:04:16.979Z,20.50
2022-10-15T00:07:33.851Z,19.43
2022-10-15T00:10:51.663Z,20.68
2022-10-15T00:14:09.261Z,21.00
2022-10-15T00:17:25.697Z,20.50
2022-10-15T00:20:42.349Z,20.40
2022-10-15T00:23:58.962Z,20.43
2022-10-15T00:27:15.318Z,20.98
2022-10-15T00:30:31.457Z,21.00
2022-10-15T00:33:49.142Z,20.48
2022-10-15T00:37:05.179Z,20.60
2022-10-15T00:40:23.686Z,20.13
2022-10-15T00:43:50.240Z,19.70
2022-10-15T00:47:10.708Z,19.20
2022-10-15T00:50:30.750Z,19.70
2022-10-15T00:53:47.138Z,20.10
2022-10-15T00:57:04.749Z,19.13
2022-10-15T01:00:25.102Z,21.85
2022-10-15T01:03:41.262Z,21.25
2022-10-15T01:06:57.355Z,23.02
2022-10-15T01:10:15.753Z,22.90
2022-10-15T01:13:41.759Z,24.00
2022-10-15T01:17:04.123Z,23.50
2022-10-15T01:20:58.550Z,23.15
2022-10-15T01:24:48.638Z,24.05
2022-10-15T01:28:10.714Z,24.68
2022-10-15T01:31:34.097Z,24.93
2022-10-15T01:34:56.077Z,26.05
2022-10-15T01:38:21.526Z,26.43
2022-10-15T01:41:43.463Z,27.85
2022-10-15T01:45:03.906Z,27.20
2022-10-15T01:48:26.855Z,25.13
2022-10-15T01:51:48.744Z,26.70
2022-10-15T01:55:07.458Z,27.08
2022-10-15T01:58:26.580Z,29.20
2022-10-15T02:04:58.475Z,29.60
2022-10-15T02:08:20.326Z,27.75
2022-10-15T02:11:43.378Z,28.78
2022-10-15T02:15:04.692Z,29.78
2022-10-15T02:18:25.957Z,27.93
2022-10-15T02:21:47.801Z,28.40
2022-10-15T02:25:09.364Z,29.83
2022-10-15T02:28:27.667Z,30.08
2022-10-15T02:31:47.691Z,30.70
2022-10-15T02:35:04.666Z,30.10
2022-10-15T02:38:25.129Z,29.65
2022-10-15T02:41:43.862Z,30.85
2022-10-15T02:45:01.175Z,31.13
2022-10-15T02:48:18.097Z,31.50
2022-10-15T02:51:38.708Z,30.98
2022-10-15T02:54:54.912Z,31.05
2022-10-15T02:58:11.428Z,30.60
2022-10-15T03:01:28.015Z,30.80
2022-10-15T03:04:44.516Z,30.25
2022-10-15T03:08:03.153Z,30.08
2022-10-15T03:14:34.549Z,31.30
2022-10-15T03:17:52.984Z,32.25
2022-10-15T03:21:09.765Z,30.07
2022-10-15T03:24:26.930Z,30.50
2022-10-15T03:27:43.146Z,31.38
2022-10-15T03:31:00.919Z,30.25
2022-10-15T03:34:17.643Z,30.00
2022-10-15T03:37:34.724Z,29.58
2022-10-15T03:40:52.935Z,30.40
2022-10-15T03:44:13.915Z,31.05
2022-10-15T03:47:31.731Z,29.38
2022-10-15T03:50:49.271Z,29.75
2022-10-15T03:54:06.075Z,29.18
2022-10-15T03:57:23.801Z,29.07
2022-10-15T04:00:42.113Z,28.93
2022-10-15T04:04:01.188Z,27.18
2022-10-15T04:07:18.462Z,27.78
2022-10-15T04:10:35.432Z,27.50
2022-10-15T04:13:55.404Z,28.68
2022-10-15T04:17:11.770Z,27.70
2022-10-15T04:20:28.342Z,28.05
2022-10-15T04:23:46.751Z,28.70
2022-10-15T04:27:08.397Z,27.25
2022-10-15T04:30:25.877Z,29.15
2022-10-15T04:33:44.123Z,23.02
2022-10-15T04:37:00.681Z,25.58
2022-10-15T04:40:20.208Z,27.45
2022-10-15T04:46:52.788Z,24.20
2022-10-15T04:50:26.055Z,23.30
2022-10-15T04:54:03.132Z,21.45
2022-10-15T04:57:19.379Z,19.38
2022-10-15T05:00:35.588Z,18.15
2022-10-15T05:03:58.348Z,18.13
2022-10-15T05:07:15.242Z,17.95
2022-10-15T05:10:31.499Z,17.73
2022-10-15T05:13:49.623Z,18.55
2022-10-15T05:17:06.481Z,17.15
2022-10-15T05:20:24.644Z,17.95
2022-10-15T05:23:42.057Z,17.50
2022-10-15T05:27:05.440Z,17.75
2022-10-15T05:30:23.459Z,17.08
2022-10-15T05:33:40.997Z,17.08
2022-10-15T05:36:58.067Z,16.88
2022-10-15T05:40:19.651Z,17.28
2022-10-15T05:43:40.307Z,16.00
2022-10-15T05:46:55.108Z,17.50
2022-10-15T05:50:14.523Z,16.75
2022-10-15T05:53:32.477Z,16.68
2022-10-15T05:56:50.249Z,16.63
2022-10-15T06:00:06.354Z,15.33
2022-10-15T06:03:24.819Z,15.53
2022-10-15T06:06:40.881Z,16.13
2022-10-15T06:09:57.569Z,15.23
2022-10-15T06:13:16.152Z,16.20
2022-10-15T06:16:32.751Z,17.75
2022-10-15T06:19:49.338Z,16.50
2022-10-15T06:23:11.846Z,14.58
2022-10-15T06:26:28.557Z,14.78
2022-10-15T06:29:44.985Z,18.55
2022-10-15T06:33:02.344Z,14.45
2022-10-15T06:36:19.862Z,13.65
2022-10-15T06:39:36.089Z,14.60
2022-10-15T06:42:52.557Z,14.50
2022-10-15T06:46:09.697Z,14.63
2022-10-15T06:49:25.770Z,13.95
2022-10-15T06:52:42.477Z,12.43
2022-10-15T06:56:07.606Z,13.15
2022-10-15T06:59:26.780Z,13.28
2022-10-15T07:02:48.838Z,13.48
2022-10-15T07:06:12.767Z,14.10
2022-10-15T07:09:29.102Z,14.10
2022-10-15T07:12:48.742Z,13.00
2022-10-15T07:16:05.315Z,14.20
2022-10-15T07:19:22.254Z,13.45
2022-10-15T07:22:38.359Z,11.88
2022-10-15T07:25:54.745Z,14.88
2022-10-15T07:29:11.590Z,15.18
2022-10-15T07:32:28.437Z,15.08
2022-10-15T07:35:45.222Z,13.70
2022-10-15T07:39:01.452Z,13.83
2022-10-15T07:42:17.642Z,13.25
2022-10-15T07:45:34.876Z,13.85
2022-10-15T07:52:08.533Z,26.58
2022-10-15T07:55:25.051Z,15.03
2022-10-15T07:58:41.382Z,13.58
2022-10-15T08:01:57.602Z,13.00
2022-10-15T08:05:15.514Z,14.15
2022-10-15T08:08:34.039Z,13.20
2022-10-15T08:11:50.740Z,13.23
2022-10-15T08:15:08.187Z,13.28
2022-10-15T08:18:24.404Z,13.05
2022-10-15T08:21:42.718Z,13.53
2022-10-15T08:24:58.141Z,12.48
2022-10-15T08:28:14.866Z,12.80
2022-10-15T08:31:32.482Z,13.20
2022-10-15T08:34:48.583Z,12.10
2022-10-15T08:38:05.252Z,11.75
2022-10-15T08:41:33.395Z,11.70
2022-10-15T08:44:55.110Z,11.60
2022-10-15T08:48:16.270Z,11.85
2022-10-15T08:51:39.567Z,11.48
2022-10-15T08:54:55.653Z,10.63
2022-10-15T08:58:19.152Z,26.70
2022-10-15T09:01:41.167Z,14.43
2022-10-15T09:05:05.291Z,10.93
2022-10-15T09:08:30.879Z,10.73
2022-10-15T09:11:56.528Z,11.23
2022-10-15T09:15:16.506Z,9.53
2022-10-15T09:18:37.593Z,9.83
2022-10-15T09:21:57.756Z,9.68
2022-10-15T09:25:28.606Z,9.88
2022-10-15T09:28:54.437Z,10.43
2022-10-15T09:32:19.667Z,9.38
2022-10-15T09:35:40.866Z,9.38
2022-10-15T09:39:07.818Z,9.85
2022-10-15T09:42:34.594Z,9.58
2022-10-15T09:45:51.796Z,16.50
2022-10-15T09:49:18.453Z,17.20
2022-10-15T09:52:48.277Z,9.90
2022-10-15T09:56:09.050Z,8.53
2022-10-15T09:59:29.399Z,9.63
2022-10-15T10:02:49.877Z,9.68
2022-10-15T10:06:14.992Z,9.13
2022-10-15T10:09:37.629Z,8.38
2022-10-15T10:12:55.156Z,9.35
2022-10-15T10:16:17.923Z,9.00
2022-10-15T10:19:34.194Z,8.73
2022-10-15T10:22:55.284Z,8.80
2022-10-15T10:26:16.613Z,8.80
2022-10-15T10:29:35.307Z,8.50
2022-10-15T10:32:55.079Z,30.85
2022-10-15T10:36:13.819Z,10.10
2022-10-15T10:39:37.289Z,8.45
2022-10-15T10:42:53.406Z,8.70
2022-10-15T10:46:15.415Z,8.40
2022-10-15T10:49:43.773Z,7.53
2022-10-15T10:53:20.624Z,7.40
2022-10-15T10:56:40.735Z,6.95
2022-10-15T11:00:00.926Z,7.50
2022-10-15T11:03:26.856Z,7.03
2022-10-15T11:07:04.388Z,6.88
2022-10-15T11:10:27.376Z,7.80
2022-10-15T11:13:59.320Z,7.20
2022-10-15T11:17:21.925Z,7.60
2022-10-15T11:20:56.305Z,6.83
2022-10-15T11:24:37.792Z,6.88
2022-10-15T11:28:14.627Z,6.90
2022-10-15T11:31:44.020Z,7.30
2022-10-15T11:35:07.312Z,6.90
2022-10-15T11:38:31.351Z,7.40
2022-10-15T11:41:53.411Z,7.25
2022-10-15T11:45:44.448Z,7.48
2022-10-15T11:49:13.454Z,7.38
2022-10-15T11:52:53.872Z,8.00
2022-10-15T11:56:16.016Z,8.48
2022-10-15T11:59:43.513Z,8.33
2022-10-15T12:03:03.542Z,7.73
2022-10-15T12:06:24.052Z,7.60
2022-10-15T12:09:44.815Z,7.85
2022-10-15T12:13:06.282Z,7.98
2022-10-15T12:16:30.872Z,8.20
2022-10-15T12:19:52.032Z,7.33
2022-10-15T12:23:10.852Z,7.78
2022-10-15T12:26:39.937Z,7.40
2022-10-15T12:30:05.132Z,7.83
2022-10-15T12:33:41.023Z,7.85
2022-10-15T12:37:06.701Z,7.73
2022-10-15T12:40:34.958Z,15.38
2022-10-15T12:43:56.454Z,7.07
2022-10-15T12:47:14.876Z,6.70
2022-10-15T12:50:36.363Z,6.30
2022-10-15T12:53:56.938Z,6.58
2022-10-15T12:57:44.976Z,5.95
2022-10-15T13:01:01.117Z,6.55
2022-10-15T13:04:17.902Z,6.45
2022-10-15T13:07:36.803Z,5.85
2022-10-15T13:11:00.728Z,5.68
2022-10-15T13:14:30.169Z,5.60
2022-10-15T13:17:48.765Z,5.65
2022-10-15T13:21:11.271Z,5.60
2022-10-15T13:24:30.012Z,5.70
2022-10-15T13:27:47.110Z,5.80
2022-10-15T13:31:03.991Z,5.18
2022-10-15T13:34:29.981Z,5.23
2022-10-15T13:37:51.812Z,10.03
2022-10-15T13:41:08.209Z,7.30
2022-10-15T13:44:34.647Z,5.43
2022-10-15T13:47:54.774Z,5.93
2022-10-15T13:51:15.041Z,5.08
2022-10-15T13:54:34.256Z,5.85
2022-10-15T13:57:53.819Z,5.68
2022-10-15T14:01:14.197Z,5.53
2022-10-15T14:04:32.057Z,6.30
2022-10-15T14:07:48.074Z,5.50
2022-10-15T14:11:06.955Z,5.33
2022-10-15T14:14:48.911Z,5.40
2022-10-15T14:18:06.309Z,5.03
2022-10-15T14:21:28.905Z,5.30
2022-10-15T14:24:47.557Z,5.60
2022-10-15T14:28:04.043Z,5.50
2022-10-15T14:31:32.449Z,5.10
2022-10-15T14:34:50.197Z,5.53
2022-10-15T14:38:21.774Z,64.73
2022-10-15T14:41:40.761Z,12.85
2022-10-15T14:45:01.457Z,7.53
2022-10-15T14:48:25.088Z,6.15
2022-10-15T14:51:42.547Z,5.48
2022-10-15T14:55:06.351Z,6.13
2022-10-15T14:58:27.603Z,5.70
2022-10-15T15:05:22.518Z,5.75
2022-10-15T15:08:38.889Z,6.70
2022-10-15T15:12:21.800Z,6.18
2022-10-15T15:15:30.270Z,5.73
2022-10-15T15:18:49.045Z,6.35
2022-10-15T15:22:05.837Z,20.85
2022-10-15T15:25:29.766Z,10.85
2022-10-15T15:28:46.779Z,7.95
2022-10-15T15:32:02.933Z,7.10
2022-10-15T15:35:32.390Z,7.20
2022-10-15T15:38:51.889Z,6.80
2022-10-15T15:42:08.149Z,7.05
2022-10-15T15:45:33.612Z,6.85
2022-10-15T15:48:50.545Z,7.03
2022-10-15T15:52:06.850Z,7.40
2022-10-15T15:55:26.404Z,7.08
2022-10-15T15:58:42.960Z,7.50
2022-10-15T16:01:59.243Z,7.23
2022-10-15T16:05:19.934Z,7.58
2022-10-15T16:08:37.958Z,8.08
2022-10-15T16:11:54.431Z,8.20
2022-10-15T16:15:14.556Z,8.30
2022-10-15T16:18:30.078Z,8.80
2022-10-15T16:21:46.208Z,9.10
2022-10-15T16:25:04.988Z,9.20
2022-10-15T16:28:21.782Z,9.65
2022-10-15T16:31:38.376Z,8.90
2022-10-15T16:34:54.581Z,8.80
2022-10-15T16:38:13.937Z,9.05
2022-10-15T16:41:32.148Z,8.45
2022-10-15T16:44:48.337Z,6.85
2022-10-15T16:48:08.535Z,7.18
2022-10-15T16:51:26.725Z,6.58
2022-10-15T16:54:43.141Z,6.78
2022-10-15T16:57:59.321Z,6.88
2022-10-15T17:01:18.483Z,6.75
2022-10-15T17:04:35.161Z,6.93
2022-10-15T17:07:51.305Z,6.85
2022-10-15T17:11:07.509Z,6.58
2022-10-15T17:14:25.475Z,7.08
2022-10-15T17:17:46.062Z,7.23
2022-10-15T17:21:03.327Z,22.25
2022-10-15T17:24:22.780Z,7.00
2022-10-15T17:27:39.284Z,6.60
2022-10-15T17:30:55.601Z,7.38
2022-10-15T17:34:15.711Z,7.23
2022-10-15T17:40:50.706Z,7.23
2022-10-15T17:44:07.106Z,6.55
2022-10-15T17:47:24.628Z,6.33
2022-10-15T17:50:45.247Z,7.00
2022-10-15T17:54:02.981Z,7.05
2022-10-15T17:57:20.337Z,6.58
2022-10-15T18:00:37.073Z,7.18
2022-10-15T18:03:54.107Z,7.15
2022-10-15T18:07:15.268Z,6.80
2022-10-15T18:10:32.133Z,6.73
2022-10-15T18:13:49.531Z,6.75
2022-10-15T18:17:05.909Z,7.00
2022-10-15T18:20:22.171Z,6.60
2022-10-15T18:23:45.739Z,6.85
2022-10-15T18:27:02.752Z,7.40
2022-10-15T18:30:20.539Z,7.58
2022-10-15T18:33:39.880Z,7.47
2022-10-15T18:36:56.256Z,7.43
2022-10-15T18:40:15.198Z,6.28
2022-10-15T18:43:31.710Z,7.65
2022-10-15T18:46:48.649Z,7.30
2022-10-15T18:50:04.779Z,7.63
2022-10-15T18:53:24.517Z,7.18
2022-10-15T18:56:44.991Z,7.55
2022-10-15T19:00:01.202Z,7.98
2022-10-15T19:03:18.530Z,7.35
2022-10-15T19:06:37.151Z,7.60
2022-10-15T19:09:53.884Z,7.45
2022-10-15T19:13:14.134Z,6.93
2022-10-15T19:16:30.660Z,7.25
2022-10-15T19:19:51.673Z,7.15
2022-10-15T19:23:10.697Z,6.68
2022-10-15T19:26:28.568Z,7.50
2022-10-15T19:29:45.214Z,7.45
2022-10-15T19:33:01.424Z,7.65
2022-10-15T19:36:19.789Z,7.20
2022-10-15T19:39:38.370Z,7.78
2022-10-15T19:42:54.520Z,7.38
2022-10-15T19:46:14.156Z,6.70
2022-10-15T19:49:30.531Z,8.25
2022-10-15T19:52:46.821Z,8.03
2022-10-15T19:56:09.564Z,7.95
2022-10-15T19:59:33.075Z,8.10
2022-10-15T20:02:51.792Z,7.90
2022-10-15T20:06:10.295Z,7.60
2022-10-15T20:09:26.551Z,8.18
2022-10-15T20:12:42.814Z,8.98
2022-10-15T20:16:01.234Z,8.60
2022-10-15T20:19:17.865Z,8.33
2022-10-15T20:22:34.597Z,8.95
2022-10-15T20:25:52.055Z,8.83
2022-10-15T20:29:08.401Z,9.45
2022-10-15T20:32:34.188Z,9.45
2022-10-15T20:35:45.056Z,10.08
2022-10-15T20:39:06.890Z,8.83
2022-10-15T20:42:23.262Z,9.30
2022-10-15T20:45:46.291Z,10.73
2022-10-15T20:49:07.684Z,10.53
2022-10-15T20:52:23.048Z,9.45
2022-10-15T20:55:39.511Z,9.53
2022-10-15T20:58:55.595Z,10.20
2022-10-15T21:02:11.672Z,10.50
2022-10-15T21:05:27.820Z,10.70
2022-10-15T21:08:44.130Z,10.75
2022-10-15T21:12:00.657Z,10.50
2022-10-15T21:15:18.033Z,10.10
2022-10-15T21:18:34.899Z,10.55
2022-10-15T21:21:53.986Z,10.38
2022-10-15T21:25:12.804Z,10.30
2022-10-15T21:28:29.112Z,10.18
2022-10-15T21:31:48.052Z,9.88
2022-10-15T21:35:06.078Z,10.18
2022-10-15T21:38:22.411Z,10.28
2022-10-15T21:41:40.999Z,10.48
2022-10-15T21:44:57.039Z,12.28
2022-10-15T21:48:14.543Z,12.65
2022-10-15T21:51:33.977Z,10.63
2022-10-15T21:54:50.017Z,10.80
2022-10-15T21:58:08.859Z,10.30
2022-10-15T22:01:28.165Z,11.48
2022-10-15T22:04:44.712Z,10.70
2022-10-15T22:08:00.708Z,10.08
2022-10-15T22:11:23.991Z,10.40
2022-10-15T22:14:40.351Z,10.33
2022-10-15T22:17:56.674Z,10.53
2022-10-15T22:21:26.715Z,10.60
2022-10-15T22:24:43.106Z,10.38
2022-10-15T22:27:59.160Z,10.68
2022-10-15T22:31:19.093Z,10.33
2022-10-15T22:34:35.182Z,10.08
2022-10-15T22:37:51.337Z,9.98
2022-10-15T22:41:08.007Z,10.18
2022-10-15T22:44:26.528Z,10.63
2022-10-15T22:47:42.575Z,9.93
2022-10-15T22:51:05.472Z,11.20
2022-10-15T22:54:22.645Z,10.63
2022-10-15T22:57:39.018Z,10.35
2022-10-15T23:00:55.340Z,10.10
2022-10-15T23:04:13.539Z,10.28
2022-10-15T23:07:29.598Z,11.45
2022-10-15T23:10:45.784Z,10.25
2022-10-15T23:14:06.489Z,10.48
2022-10-15T23:20:40.811Z,11.05
2022-10-15T23:23:59.108Z,10.75
2022-10-15T23:27:16.418Z,10.38
2022-10-15T23:30:32.635Z,10.70
2022-10-15T23:33:48.823Z,10.98
2022-10-15T23:37:04.920Z,10.63
2022-10-15T23:40:21.816Z,11.15
2022-10-15T23:43:37.882Z,10.60
2022-10-15T23:46:54.152Z,10.13
2022-10-15T23:50:10.874Z,10.38
2022-10-15T23:53:28.026Z,10.03
2022-10-15T23:56:44.614Z,10.03
